sensor_id;sensor_type;location;lat;lon;timestamp;P1;durP1;ratioP1;P2;durP2;ratioP2
77775;SDS011;66965;43.328;6.668;2023-06-10T00:01:06;11.33;;;5.93;;
77775;SDS011;66965;43.328;6.668;2023-06-10T00:03:32;12.83;;;6.10;;
77775;SDS011;66965;43.328;6.668;2023-06-10T00:05:57;12.65;;;6.03;;
77775;SDS011;66965;43.328;6.668;2023-06-10T00:08:23;12.10;;;6.20;;
77775;SDS011;66965;43.328;6.668;2023-06-10T00:10:48;11.37;;;6.43;;
77775;SDS011;66965;43.328;6.668;2023-06-10T00:13:13;10.43;;;5.87;;
77775;SDS011;66965;43.328;6.668;2023-06-10T00:15:39;13.55;;;7.43;;
77775;SDS011;66965;43.328;6.668;2023-06-10T00:18:04;13.30;;;6.10;;
77775;SDS011;66965;43.328;6.668;2023-06-10T00:20:30;9.02;;;5.85;;
77775;SDS011;66965;43.328;6.668;2023-06-10T00:22:56;12.07;;;6.65;;
77775;SDS011;66965;43.328;6.668;2023-06-10T00:25:22;10.23;;;6.28;;
77775;SDS011;66965;43.328;6.668;2023-06-10T00:27:47;12.55;;;7.18;;
77775;SDS011;66965;43.328;6.668;2023-06-10T00:30:13;16.50;;;6.40;;
77775;SDS011;66965;43.328;6.668;2023-06-10T00:32:38;11.43;;;6.45;;
77775;SDS011;66965;43.328;6.668;2023-06-10T00:35:04;12.15;;;6.50;;
77775;SDS011;66965;43.328;6.668;2023-06-10T00:37:29;11.88;;;6.38;;
77775;SDS011;66965;43.328;6.668;2023-06-10T00:39:55;17.25;;;7.18;;
77775;SDS011;66965;43.328;6.668;2023-06-10T00:42:20;11.07;;;6.72;;
77775;SDS011;66965;43.328;6.668;2023-06-10T00:44:47;11.00;;;6.53;;
77775;SDS011;66965;43.328;6.668;2023-06-10T00:47:12;12.77;;;6.43;;
77775;SDS011;66965;43.328;6.668;2023-06-10T00:49:38;13.20;;;6.80;;
77775;SDS011;66965;43.328;6.668;2023-06-10T00:52:04;12.97;;;6.43;;
77775;SDS011;66965;43.328;6.668;2023-06-10T00:54:29;9.95;;;6.50;;
77775;SDS011;66965;43.328;6.668;2023-06-10T00:56:55;11.05;;;6.65;;
77775;SDS011;66965;43.328;6.668;2023-06-10T00:59:21;10.43;;;6.32;;
77775;SDS011;66965;43.328;6.668;2023-06-10T01:01:46;10.17;;;5.90;;
77775;SDS011;66965;43.328;6.668;2023-06-10T01:04:14;13.32;;;6.63;;
77775;SDS011;66965;43.328;6.668;2023-06-10T01:06:55;8.70;;;6.15;;
77775;SDS011;66965;43.328;6.668;2023-06-10T01:12:19;8.20;;;5.93;;
77775;SDS011;66965;43.328;6.668;2023-06-10T01:14:45;15.60;;;6.72;;
77775;SDS011;66965;43.328;6.668;2023-06-10T01:17:12;10.68;;;6.13;;
77775;SDS011;66965;43.328;6.668;2023-06-10T01:19:37;13.65;;;6.47;;
77775;SDS011;66965;43.328;6.668;2023-06-10T01:22:03;13.13;;;6.43;;
77775;SDS011;66965;43.328;6.668;2023-06-10T01:24:28;11.40;;;6.30;;
77775;SDS011;66965;43.328;6.668;2023-06-10T01:26:54;11.55;;;7.35;;
77775;SDS011;66965;43.328;6.668;2023-06-10T01:29:43;7.88;;;5.82;;
77775;SDS011;66965;43.328;6.668;2023-06-10T01:32:15;12.00;;;7.50;;
77775;SDS011;66965;43.328;6.668;2023-06-10T01:34:42;10.20;;;6.85;;
77775;SDS011;66965;43.328;6.668;2023-06-10T01:39:34;14.23;;;6.75;;
77775;SDS011;66965;43.328;6.668;2023-06-10T01:41:59;9.93;;;6.57;;
77775;SDS011;66965;43.328;6.668;2023-06-10T01:44:25;15.65;;;7.18;;
77775;SDS011;66965;43.328;6.668;2023-06-10T01:46:51;11.43;;;7.90;;
77775;SDS011;66965;43.328;6.668;2023-06-10T01:49:16;18.88;;;7.65;;
77775;SDS011;66965;43.328;6.668;2023-06-10T01:51:41;8.90;;;6.33;;
77775;SDS011;66965;43.328;6.668;2023-06-10T01:54:08;11.43;;;6.63;;
77775;SDS011;66965;43.328;6.668;2023-06-10T01:56:33;10.55;;;6.70;;
77775;SDS011;66965;43.328;6.668;2023-06-10T01:58:59;9.10;;;5.90;;
77775;SDS011;66965;43.328;6.668;2023-06-10T02:01:25;12.43;;;7.47;;
77775;SDS011;66965;43.328;6.668;2023-06-10T02:03:50;11.18;;;6.82;;
77775;SDS011;66965;43.328;6.668;2023-06-10T02:06:15;11.60;;;7.10;;
77775;SDS011;66965;43.328;6.668;2023-06-10T02:08:41;9.27;;;6.60;;
77775;SDS011;66965;43.328;6.668;2023-06-10T02:11:07;10.75;;;6.78;;
77775;SDS011;66965;43.328;6.668;2023-06-10T02:13:32;10.13;;;6.33;;
77775;SDS011;66965;43.328;6.668;2023-06-10T02:15:57;9.73;;;6.70;;
77775;SDS011;66965;43.328;6.668;2023-06-10T02:18:22;9.57;;;6.40;;
77775;SDS011;66965;43.328;6.668;2023-06-10T02:20:48;9.30;;;5.85;;
77775;SDS011;66965;43.328;6.668;2023-06-10T02:23:13;12.70;;;6.63;;
77775;SDS011;66965;43.328;6.668;2023-06-10T02:25:39;10.77;;;6.37;;
77775;SDS011;66965;43.328;6.668;2023-06-10T02:28:05;10.55;;;5.70;;
77775;SDS011;66965;43.328;6.668;2023-06-10T02:30:30;11.63;;;6.65;;
77775;SDS011;66965;43.328;6.668;2023-06-10T02:32:55;11.30;;;6.10;;
77775;SDS011;66965;43.328;6.668;2023-06-10T02:35:21;14.50;;;6.20;;
77775;SDS011;66965;43.328;6.668;2023-06-10T02:37:47;7.97;;;5.78;;
77775;SDS011;66965;43.328;6.668;2023-06-10T02:40:12;10.63;;;6.47;;
77775;SDS011;66965;43.328;6.668;2023-06-10T02:42:38;9.73;;;5.50;;
77775;SDS011;66965;43.328;6.668;2023-06-10T02:45:03;7.40;;;5.47;;
77775;SDS011;66965;43.328;6.668;2023-06-10T02:47:28;8.50;;;5.00;;
77775;SDS011;66965;43.328;6.668;2023-06-10T02:49:54;8.25;;;5.03;;
77775;SDS011;66965;43.328;6.668;2023-06-10T02:52:20;9.15;;;4.80;;
77775;SDS011;66965;43.328;6.668;2023-06-10T02:54:45;8.18;;;4.88;;
77775;SDS011;66965;43.328;6.668;2023-06-10T02:57:11;9.60;;;6.00;;
77775;SDS011;66965;43.328;6.668;2023-06-10T02:59:36;11.17;;;5.63;;
77775;SDS011;66965;43.328;6.668;2023-06-10T03:02:01;7.87;;;4.90;;
77775;SDS011;66965;43.328;6.668;2023-06-10T03:04:26;6.90;;;5.00;;
77775;SDS011;66965;43.328;6.668;2023-06-10T03:06:54;8.45;;;5.50;;
77775;SDS011;66965;43.328;6.668;2023-06-10T03:09:19;7.35;;;4.85;;
77775;SDS011;66965;43.328;6.668;2023-06-10T03:11:45;10.83;;;5.67;;
77775;SDS011;66965;43.328;6.668;2023-06-10T03:14:10;7.20;;;5.37;;
77775;SDS011;66965;43.328;6.668;2023-06-10T03:16:35;11.93;;;5.83;;
77775;SDS011;66965;43.328;6.668;2023-06-10T03:19:00;11.17;;;5.87;;
77775;SDS011;66965;43.328;6.668;2023-06-10T03:21:26;11.30;;;5.97;;
77775;SDS011;66965;43.328;6.668;2023-06-10T03:23:52;8.55;;;5.80;;
77775;SDS011;66965;43.328;6.668;2023-06-10T03:26:17;9.33;;;5.43;;
77775;SDS011;66965;43.328;6.668;2023-06-10T03:28:46;10.32;;;5.35;;
77775;SDS011;66965;43.328;6.668;2023-06-10T03:31:11;9.07;;;5.03;;
77775;SDS011;66965;43.328;6.668;2023-06-10T03:33:37;12.30;;;5.80;;
77775;SDS011;66965;43.328;6.668;2023-06-10T03:36:02;8.70;;;5.93;;
77775;SDS011;66965;43.328;6.668;2023-06-10T03:38:27;9.07;;;5.30;;
77775;SDS011;66965;43.328;6.668;2023-06-10T03:40:53;8.47;;;4.77;;
77775;SDS011;66965;43.328;6.668;2023-06-10T03:43:18;9.03;;;5.60;;
77775;SDS011;66965;43.328;6.668;2023-06-10T03:45:43;9.33;;;5.30;;
77775;SDS011;66965;43.328;6.668;2023-06-10T03:48:09;11.77;;;6.53;;
77775;SDS011;66965;43.328;6.668;2023-06-10T03:50:34;9.53;;;4.93;;
77775;SDS011;66965;43.328;6.668;2023-06-10T03:53:01;9.63;;;5.03;;
77775;SDS011;66965;43.328;6.668;2023-06-10T03:55:26;11.40;;;5.00;;
77775;SDS011;66965;43.328;6.668;2023-06-10T03:57:51;10.13;;;5.00;;
77775;SDS011;66965;43.328;6.668;2023-06-10T04:00:17;10.50;;;5.77;;
77775;SDS011;66965;43.328;6.668;2023-06-10T04:02:43;7.60;;;5.57;;
77775;SDS011;66965;43.328;6.668;2023-06-10T04:05:12;9.02;;;5.03;;
77775;SDS011;66965;43.328;6.668;2023-06-10T04:07:37;10.07;;;4.60;;
77775;SDS011;66965;43.328;6.668;2023-06-10T04:10:04;10.32;;;5.43;;
77775;SDS011;66965;43.328;6.668;2023-06-10T04:12:30;9.77;;;5.50;;
77775;SDS011;66965;43.328;6.668;2023-06-10T04:14:55;8.53;;;5.23;;
77775;SDS011;66965;43.328;6.668;2023-06-10T04:17:21;12.87;;;5.87;;
77775;SDS011;66965;43.328;6.668;2023-06-10T04:19:46;12.00;;;6.17;;
77775;SDS011;66965;43.328;6.668;2023-06-10T04:22:11;8.67;;;5.90;;
77775;SDS011;66965;43.328;6.668;2023-06-10T04:24:36;9.97;;;5.90;;
77775;SDS011;66965;43.328;6.668;2023-06-10T04:27:02;9.40;;;6.27;;
77775;SDS011;66965;43.328;6.668;2023-06-10T04:31:53;12.13;;;5.97;;
77775;SDS011;66965;43.328;6.668;2023-06-10T04:34:18;11.83;;;6.73;;
77775;SDS011;66965;43.328;6.668;2023-06-10T04:36:44;9.23;;;4.77;;
77775;SDS011;66965;43.328;6.668;2023-06-10T04:39:09;9.07;;;5.50;;
77775;SDS011;66965;43.328;6.668;2023-06-10T04:41:34;10.47;;;5.23;;
77775;SDS011;66965;43.328;6.668;2023-06-10T04:43:59;9.97;;;5.87;;
77775;SDS011;66965;43.328;6.668;2023-06-10T04:46:24;9.40;;;5.13;;
77775;SDS011;66965;43.328;6.668;2023-06-10T04:48:50;8.17;;;5.10;;
77775;SDS011;66965;43.328;6.668;2023-06-10T04:51:15;10.23;;;5.43;;
77775;SDS011;66965;43.328;6.668;2023-06-10T04:56:07;12.93;;;5.17;;
77775;SDS011;66965;43.328;6.668;2023-06-10T04:58:32;9.20;;;5.22;;
77775;SDS011;66965;43.328;6.668;2023-06-10T05:00:58;11.70;;;5.13;;
77775;SDS011;66965;43.328;6.668;2023-06-10T05:03:23;7.43;;;4.63;;
77775;SDS011;66965;43.328;6.668;2023-06-10T05:05:48;7.40;;;4.83;;
77775;SDS011;66965;43.328;6.668;2023-06-10T05:08:13;8.03;;;4.20;;
77775;SDS011;66965;43.328;6.668;2023-06-10T05:10:39;13.30;;;5.67;;
77775;SDS011;66965;43.328;6.668;2023-06-10T05:13:04;12.30;;;5.37;;
77775;SDS011;66965;43.328;6.668;2023-06-10T05:15:29;11.20;;;4.90;;
77775;SDS011;66965;43.328;6.668;2023-06-10T05:17:56;9.40;;;4.32;;
77775;SDS011;66965;43.328;6.668;2023-06-10T05:20:22;8.30;;;4.78;;
77775;SDS011;66965;43.328;6.668;2023-06-10T05:22:47;10.63;;;5.53;;
77775;SDS011;66965;43.328;6.668;2023-06-10T05:25:13;9.83;;;5.27;;
77775;SDS011;66965;43.328;6.668;2023-06-10T05:27:38;8.87;;;5.40;;
77775;SDS011;66965;43.328;6.668;2023-06-10T05:30:05;8.63;;;5.40;;
77775;SDS011;66965;43.328;6.668;2023-06-10T05:32:32;8.75;;;5.72;;
77775;SDS011;66965;43.328;6.668;2023-06-10T05:34:57;13.93;;;6.20;;
77775;SDS011;66965;43.328;6.668;2023-06-10T05:37:25;11.57;;;5.60;;
77775;SDS011;66965;43.328;6.668;2023-06-10T05:39:50;7.72;;;5.13;;
77775;SDS011;66965;43.328;6.668;2023-06-10T05:42:16;10.02;;;5.18;;
77775;SDS011;66965;43.328;6.668;2023-06-10T05:44:41;10.68;;;5.78;;
77775;SDS011;66965;43.328;6.668;2023-06-10T05:47:06;11.73;;;5.38;;
77775;SDS011;66965;43.328;6.668;2023-06-10T05:49:32;9.50;;;5.03;;
77775;SDS011;66965;43.328;6.668;2023-06-10T05:51:57;10.40;;;5.40;;
77775;SDS011;66965;43.328;6.668;2023-06-10T05:54:24;10.25;;;5.20;;
77775;SDS011;66965;43.328;6.668;2023-06-10T05:56:49;11.97;;;5.40;;
77775;SDS011;66965;43.328;6.668;2023-06-10T05:59:14;12.18;;;5.97;;
77775;SDS011;66965;43.328;6.668;2023-06-10T06:01:39;8.57;;;5.67;;
77775;SDS011;66965;43.328;6.668;2023-06-10T06:04:05;9.07;;;5.05;;
77775;SDS011;66965;43.328;6.668;2023-06-10T06:06:30;11.77;;;5.03;;
77775;SDS011;66965;43.328;6.668;2023-06-10T06:08:56;10.70;;;5.83;;
77775;SDS011;66965;43.328;6.668;2023-06-10T06:11:21;11.87;;;5.13;;
77775;SDS011;66965;43.328;6.668;2023-06-10T06:13:47;12.00;;;5.35;;
77775;SDS011;66965;43.328;6.668;2023-06-10T06:16:13;7.88;;;5.28;;
77775;SDS011;66965;43.328;6.668;2023-06-10T06:18:38;8.38;;;5.57;;
77775;SDS011;66965;43.328;6.668;2023-06-10T06:21:03;9.03;;;5.07;;
77775;SDS011;66965;43.328;6.668;2023-06-10T06:23:29;9.60;;;4.90;;
77775;SDS011;66965;43.328;6.668;2023-06-10T06:28:20;12.77;;;5.97;;
77775;SDS011;66965;43.328;6.668;2023-06-10T06:30:47;12.45;;;4.70;;
77775;SDS011;66965;43.328;6.668;2023-06-10T06:33:12;8.53;;;5.20;;
77775;SDS011;66965;43.328;6.668;2023-06-10T06:35:38;9.10;;;4.43;;
77775;SDS011;66965;43.328;6.668;2023-06-10T06:38:03;8.20;;;4.43;;
77775;SDS011;66965;43.328;6.668;2023-06-10T06:40:29;8.30;;;4.45;;
77775;SDS011;66965;43.328;6.668;2023-06-10T06:42:54;8.00;;;4.68;;
77775;SDS011;66965;43.328;6.668;2023-06-10T06:45:19;9.27;;;4.23;;
77775;SDS011;66965;43.328;6.668;2023-06-10T06:47:45;7.60;;;5.15;;
77775;SDS011;66965;43.328;6.668;2023-06-10T06:50:10;10.85;;;5.50;;
77775;SDS011;66965;43.328;6.668;2023-06-10T06:52:36;8.27;;;4.40;;
77775;SDS011;66965;43.328;6.668;2023-06-10T06:55:01;7.10;;;4.50;;
77775;SDS011;66965;43.328;6.668;2023-06-10T06:57:27;10.00;;;3.95;;
77775;SDS011;66965;43.328;6.668;2023-06-10T06:59:52;7.97;;;3.97;;
77775;SDS011;66965;43.328;6.668;2023-06-10T07:02:17;9.02;;;3.63;;
77775;SDS011;66965;43.328;6.668;2023-06-10T07:04:44;9.75;;;3.75;;
77775;SDS011;66965;43.328;6.668;2023-06-10T07:07:10;8.25;;;3.88;;
77775;SDS011;66965;43.328;6.668;2023-06-10T07:09:36;6.87;;;3.50;;
77775;SDS011;66965;43.328;6.668;2023-06-10T07:14:27;9.07;;;3.95;;
77775;SDS011;66965;43.328;6.668;2023-06-10T07:16:52;6.80;;;3.70;;
77775;SDS011;66965;43.328;6.668;2023-06-10T07:19:17;7.53;;;4.10;;
77775;SDS011;66965;43.328;6.668;2023-06-10T07:21:43;8.27;;;4.80;;
77775;SDS011;66965;43.328;6.668;2023-06-10T07:24:08;9.30;;;4.13;;
77775;SDS011;66965;43.328;6.668;2023-06-10T07:26:33;8.93;;;3.53;;
77775;SDS011;66965;43.328;6.668;2023-06-10T07:28:59;9.17;;;4.47;;
77775;SDS011;66965;43.328;6.668;2023-06-10T07:31:24;7.78;;;4.50;;
77775;SDS011;66965;43.328;6.668;2023-06-10T07:33:50;10.52;;;4.00;;
77775;SDS011;66965;43.328;6.668;2023-06-10T07:36:15;9.53;;;4.77;;
77775;SDS011;66965;43.328;6.668;2023-06-10T07:38:40;9.00;;;3.97;;
77775;SDS011;66965;43.328;6.668;2023-06-10T07:41:07;6.65;;;3.90;;
77775;SDS011;66965;43.328;6.668;2023-06-10T07:43:32;8.50;;;4.53;;
77775;SDS011;66965;43.328;6.668;2023-06-10T07:45:58;8.57;;;4.83;;
77775;SDS011;66965;43.328;6.668;2023-06-10T07:48:23;10.70;;;4.87;;
77775;SDS011;66965;43.328;6.668;2023-06-10T07:50:48;8.97;;;4.53;;
77775;SDS011;66965;43.328;6.668;2023-06-10T07:53:13;11.07;;;5.33;;
77775;SDS011;66965;43.328;6.668;2023-06-10T07:55:39;10.70;;;5.50;;
77775;SDS011;66965;43.328;6.668;2023-06-10T07:58:04;11.53;;;5.47;;
77775;SDS011;66965;43.328;6.668;2023-06-10T08:00:29;9.87;;;5.30;;
77775;SDS011;66965;43.328;6.668;2023-06-10T08:02:54;10.80;;;5.47;;
77775;SDS011;66965;43.328;6.668;2023-06-10T08:05:20;9.63;;;5.95;;
77775;SDS011;66965;43.328;6.668;2023-06-10T08:07:46;9.57;;;4.85;;
77775;SDS011;66965;43.328;6.668;2023-06-10T08:10:11;11.43;;;4.70;;
77775;SDS011;66965;43.328;6.668;2023-06-10T08:12:36;9.20;;;5.93;;
77775;SDS011;66965;43.328;6.668;2023-06-10T08:15:02;13.13;;;5.60;;
77775;SDS011;66965;43.328;6.668;2023-06-10T08:17:29;10.55;;;6.28;;
77775;SDS011;66965;43.328;6.668;2023-06-10T08:22:19;11.70;;;5.30;;
77775;SDS011;66965;43.328;6.668;2023-06-10T08:24:45;10.43;;;4.83;;
77775;SDS011;66965;43.328;6.668;2023-06-10T08:29:35;9.93;;;5.40;;
77775;SDS011;66965;43.328;6.668;2023-06-10T08:32:01;10.77;;;6.50;;
77775;SDS011;66965;43.328;6.668;2023-06-10T08:34:26;10.70;;;5.95;;
77775;SDS011;66965;43.328;6.668;2023-06-10T08:39:18;12.95;;;5.72;;
77775;SDS011;66965;43.328;6.668;2023-06-10T08:49:01;12.40;;;5.20;;
77775;SDS011;66965;43.328;6.668;2023-06-10T08:51:27;12.43;;;5.03;;
77775;SDS011;66965;43.328;6.668;2023-06-10T08:53:58;12.32;;;5.15;;
77775;SDS011;66965;43.328;6.668;2023-06-10T08:56:25;11.43;;;5.35;;
77775;SDS011;66965;43.328;6.668;2023-06-10T08:58:51;9.63;;;4.57;;
77775;SDS011;66965;43.328;6.668;2023-06-10T09:01:18;15.20;;;5.43;;
77775;SDS011;66965;43.328;6.668;2023-06-10T09:03:43;10.65;;;4.10;;
77775;SDS011;66965;43.328;6.668;2023-06-10T09:06:08;15.73;;;5.30;;
77775;SDS011;66965;43.328;6.668;2023-06-10T09:08:34;8.23;;;4.10;;
77775;SDS011;66965;43.328;6.668;2023-06-10T09:11:02;9.45;;;4.05;;
77775;SDS011;66965;43.328;6.668;2023-06-10T09:13:27;9.67;;;4.17;;
77775;SDS011;66965;43.328;6.668;2023-06-10T09:15:52;9.23;;;4.10;;
77775;SDS011;66965;43.328;6.668;2023-06-10T09:18:18;9.15;;;4.30;;
77775;SDS011;66965;43.328;6.668;2023-06-10T09:20:43;11.17;;;4.67;;
77775;SDS011;66965;43.328;6.668;2023-06-10T09:23:08;8.07;;;3.40;;
77775;SDS011;66965;43.328;6.668;2023-06-10T09:25:35;8.57;;;3.70;;
77775;SDS011;66965;43.328;6.668;2023-06-10T09:28:01;9.65;;;3.83;;
77775;SDS011;66965;43.328;6.668;2023-06-10T09:32:57;14.73;;;3.83;;
77775;SDS011;66965;43.328;6.668;2023-06-10T09:35:23;9.27;;;4.03;;
77775;SDS011;66965;43.328;6.668;2023-06-10T09:37:53;12.65;;;4.22;;
77775;SDS011;66965;43.328;6.668;2023-06-10T09:40:18;9.13;;;3.47;;
77775;SDS011;66965;43.328;6.668;2023-06-10T09:42:44;6.95;;;3.08;;
77775;SDS011;66965;43.328;6.668;2023-06-10T09:45:09;11.05;;;3.90;;
77775;SDS011;66965;43.328;6.668;2023-06-10T09:47:35;12.35;;;4.28;;
77775;SDS011;66965;43.328;6.668;2023-06-10T09:52:27;8.77;;;4.15;;
77775;SDS011;66965;43.328;6.668;2023-06-10T09:54:53;10.05;;;3.72;;
77775;SDS011;66965;43.328;6.668;2023-06-10T09:59:44;6.73;;;3.27;;
77775;SDS011;66965;43.328;6.668;2023-06-10T10:02:14;10.10;;;3.58;;
77775;SDS011;66965;43.328;6.668;2023-06-10T10:04:40;9.23;;;4.43;;
77775;SDS011;66965;43.328;6.668;2023-06-10T10:07:05;9.57;;;3.60;;
77775;SDS011;66965;43.328;6.668;2023-06-10T10:09:32;12.38;;;3.83;;
77775;SDS011;66965;43.328;6.668;2023-06-10T10:14:22;8.23;;;4.03;;
77775;SDS011;66965;43.328;6.668;2023-06-10T10:19:18;10.13;;;4.13;;
77775;SDS011;66965;43.328;6.668;2023-06-10T10:21:56;9.48;;;3.97;;
77775;SDS011;66965;43.328;6.668;2023-06-10T10:24:27;11.38;;;4.22;;
77775;SDS011;66965;43.328;6.668;2023-06-10T10:26:56;8.93;;;3.72;;
77775;SDS011;66965;43.328;6.668;2023-06-10T10:29:30;6.78;;;3.17;;
77775;SDS011;66965;43.328;6.668;2023-06-10T10:31:56;11.20;;;3.83;;
77775;SDS011;66965;43.328;6.668;2023-06-10T10:34:29;9.82;;;3.47;;
77775;SDS011;66965;43.328;6.668;2023-06-10T10:36:56;9.18;;;3.80;;
77775;SDS011;66965;43.328;6.668;2023-06-10T10:41:47;8.50;;;3.83;;
77775;SDS011;66965;43.328;6.668;2023-06-10T10:46:41;10.65;;;4.43;;
77775;SDS011;66965;43.328;6.668;2023-06-10T10:49:07;6.18;;;3.40;;
77775;SDS011;66965;43.328;6.668;2023-06-10T10:54:13;8.10;;;4.03;;
77775;SDS011;66965;43.328;6.668;2023-06-10T10:56:38;13.65;;;4.32;;
77775;SDS011;66965;43.328;6.668;2023-06-10T11:01:39;13.95;;;4.00;;
77775;SDS011;66965;43.328;6.668;2023-06-10T11:04:06;10.35;;;4.15;;
77775;SDS011;66965;43.328;6.668;2023-06-10T11:06:32;8.10;;;4.07;;
77775;SDS011;66965;43.328;6.668;2023-06-10T11:08:57;10.13;;;4.23;;
77775;SDS011;66965;43.328;6.668;2023-06-10T11:11:24;11.95;;;4.45;;
77775;SDS011;66965;43.328;6.668;2023-06-10T11:16:41;9.45;;;3.50;;
77775;SDS011;66965;43.328;6.668;2023-06-10T11:19:06;8.95;;;3.83;;
77775;SDS011;66965;43.328;6.668;2023-06-10T11:21:32;9.48;;;3.70;;
77775;SDS011;66965;43.328;6.668;2023-06-10T11:24:09;8.77;;;3.65;;
77775;SDS011;66965;43.328;6.668;2023-06-10T11:26:43;9.45;;;3.80;;
77775;SDS011;66965;43.328;6.668;2023-06-10T11:29:08;8.15;;;3.78;;
77775;SDS011;66965;43.328;6.668;2023-06-10T11:31:41;7.22;;;3.63;;
77775;SDS011;66965;43.328;6.668;2023-06-10T11:34:07;7.80;;;3.47;;
77775;SDS011;66965;43.328;6.668;2023-06-10T11:36:40;6.85;;;3.70;;
77775;SDS011;66965;43.328;6.668;2023-06-10T11:39:07;7.75;;;3.17;;
77775;SDS011;66965;43.328;6.668;2023-06-10T11:41:33;9.55;;;3.80;;
77775;SDS011;66965;43.328;6.668;2023-06-10T11:44:02;8.43;;;3.67;;
77775;SDS011;66965;43.328;6.668;2023-06-10T11:46:28;7.63;;;3.60;;
77775;SDS011;66965;43.328;6.668;2023-06-10T11:48:54;10.60;;;3.80;;
77775;SDS011;66965;43.328;6.668;2023-06-10T11:51:20;9.63;;;3.75;;
77775;SDS011;66965;43.328;6.668;2023-06-10T11:53:48;11.65;;;4.55;;
77775;SDS011;66965;43.328;6.668;2023-06-10T11:56:20;11.70;;;3.50;;
77775;SDS011;66965;43.328;6.668;2023-06-10T11:58:46;7.50;;;3.20;;
77775;SDS011;66965;43.328;6.668;2023-06-10T12:01:25;9.07;;;3.63;;
77775;SDS011;66965;43.328;6.668;2023-06-10T12:04:00;8.77;;;3.38;;
77775;SDS011;66965;43.328;6.668;2023-06-10T12:06:26;9.05;;;3.42;;
77775;SDS011;66965;43.328;6.668;2023-06-10T12:08:52;8.48;;;3.28;;
77775;SDS011;66965;43.328;6.668;2023-06-10T12:11:18;7.50;;;3.08;;
77775;SDS011;66965;43.328;6.668;2023-06-10T12:13:47;7.38;;;3.08;;
77775;SDS011;66965;43.328;6.668;2023-06-10T12:16:15;9.80;;;4.10;;
77775;SDS011;66965;43.328;6.668;2023-06-10T12:18:43;10.82;;;4.03;;
77775;SDS011;66965;43.328;6.668;2023-06-10T12:26:36;9.25;;;3.55;;
77775;SDS011;66965;43.328;6.668;2023-06-10T12:29:11;9.00;;;3.28;;
77775;SDS011;66965;43.328;6.668;2023-06-10T12:31:55;14.98;;;3.97;;
77775;SDS011;66965;43.328;6.668;2023-06-10T12:34:28;6.63;;;3.08;;
77775;SDS011;66965;43.328;6.668;2023-06-10T12:36:54;8.88;;;3.05;;
77775;SDS011;66965;43.328;6.668;2023-06-10T12:39:19;8.80;;;3.00;;
77775;SDS011;66965;43.328;6.668;2023-06-10T12:41:48;10.03;;;3.00;;
77775;SDS011;66965;43.328;6.668;2023-06-10T12:44:13;6.38;;;3.00;;
77775;SDS011;66965;43.328;6.668;2023-06-10T12:46:39;8.73;;;2.92;;
77775;SDS011;66965;43.328;6.668;2023-06-10T12:49:04;6.47;;;2.40;;
77775;SDS011;66965;43.328;6.668;2023-06-10T12:51:29;7.87;;;3.40;;
77775;SDS011;66965;43.328;6.668;2023-06-10T12:53:55;9.67;;;3.00;;
77775;SDS011;66965;43.328;6.668;2023-06-10T12:56:20;8.40;;;3.03;;
77775;SDS011;66965;43.328;6.668;2023-06-10T12:58:47;10.57;;;2.92;;
77775;SDS011;66965;43.328;6.668;2023-06-10T13:01:13;7.50;;;3.25;;
77775;SDS011;66965;43.328;6.668;2023-06-10T13:03:38;8.00;;;3.03;;
77775;SDS011;66965;43.328;6.668;2023-06-10T13:06:05;8.00;;;2.83;;
77775;SDS011;66965;43.328;6.668;2023-06-10T13:08:31;8.52;;;2.92;;
77775;SDS011;66965;43.328;6.668;2023-06-10T13:10:57;7.97;;;2.88;;
77775;SDS011;66965;43.328;6.668;2023-06-10T13:13:22;8.80;;;2.50;;
77775;SDS011;66965;43.328;6.668;2023-06-10T13:15:48;6.63;;;2.77;;
77775;SDS011;66965;43.328;6.668;2023-06-10T13:18:15;7.15;;;2.53;;
77775;SDS011;66965;43.328;6.668;2023-06-10T13:20:40;8.68;;;2.85;;
77775;SDS011;66965;43.328;6.668;2023-06-10T13:23:05;8.23;;;2.53;;
77775;SDS011;66965;43.328;6.668;2023-06-10T13:25:30;6.50;;;2.70;;
77775;SDS011;66965;43.328;6.668;2023-06-10T13:27:56;5.87;;;2.53;;
77775;SDS011;66965;43.328;6.668;2023-06-10T13:30:21;9.73;;;2.67;;
77775;SDS011;66965;43.328;6.668;2023-06-10T13:32:46;8.47;;;3.07;;
77775;SDS011;66965;43.328;6.668;2023-06-10T13:35:12;8.53;;;2.53;;
77775;SDS011;66965;43.328;6.668;2023-06-10T13:37:37;7.93;;;2.77;;
77775;SDS011;66965;43.328;6.668;2023-06-10T13:40:02;9.07;;;2.73;;
77775;SDS011;66965;43.328;6.668;2023-06-10T13:42:28;5.90;;;2.55;;
77775;SDS011;66965;43.328;6.668;2023-06-10T13:44:54;8.48;;;2.50;;
77775;SDS011;66965;43.328;6.668;2023-06-10T13:47:19;11.30;;;2.97;;
77775;SDS011;66965;43.328;6.668;2023-06-10T13:49:45;7.15;;;2.00;;
77775;SDS011;66965;43.328;6.668;2023-06-10T13:52:11;10.38;;;2.92;;
77775;SDS011;66965;43.328;6.668;2023-06-10T13:54:36;6.33;;;2.50;;
77775;SDS011;66965;43.328;6.668;2023-06-10T13:57:02;5.70;;;2.30;;
77775;SDS011;66965;43.328;6.668;2023-06-10T13:59:27;10.98;;;2.95;;
77775;SDS011;66965;43.328;6.668;2023-06-10T14:01:53;7.00;;;3.00;;
77775;SDS011;66965;43.328;6.668;2023-06-10T14:04:18;8.93;;;2.40;;
77775;SDS011;66965;43.328;6.668;2023-06-10T14:06:43;7.70;;;3.57;;
77775;SDS011;66965;43.328;6.668;2023-06-10T14:09:09;10.57;;;2.67;;
77775;SDS011;66965;43.328;6.668;2023-06-10T14:11:35;11.95;;;2.90;;
77775;SDS011;66965;43.328;6.668;2023-06-10T14:14:00;10.90;;;3.20;;
77775;SDS011;66965;43.328;6.668;2023-06-10T14:16:26;18.55;;;4.97;;
77775;SDS011;66965;43.328;6.668;2023-06-10T14:18:51;22.42;;;6.30;;
77775;SDS011;66965;43.328;6.668;2023-06-10T14:23:42;21.17;;;5.00;;
77775;SDS011;66965;43.328;6.668;2023-06-10T14:28:33;26.93;;;6.97;;
77775;SDS011;66965;43.328;6.668;2023-06-10T14:30:59;33.80;;;7.93;;
77775;SDS011;66965;43.328;6.668;2023-06-10T14:33:24;15.95;;;4.88;;
77775;SDS011;66965;43.328;6.668;2023-06-10T14:35:49;12.60;;;3.27;;
77775;SDS011;66965;43.328;6.668;2023-06-10T14:38:15;13.27;;;3.10;;
77775;SDS011;66965;43.328;6.668;2023-06-10T14:40:40;15.80;;;4.70;;
77775;SDS011;66965;43.328;6.668;2023-06-10T14:43:05;17.57;;;5.00;;
77775;SDS011;66965;43.328;6.668;2023-06-10T14:45:35;11.07;;;4.68;;
77775;SDS011;66965;43.328;6.668;2023-06-10T14:50:26;15.20;;;3.85;;
77775;SDS011;66965;43.328;6.668;2023-06-10T14:52:51;17.67;;;5.27;;
77775;SDS011;66965;43.328;6.668;2023-06-10T14:55:16;18.40;;;7.03;;
77775;SDS011;66965;43.328;6.668;2023-06-10T14:57:41;23.63;;;7.13;;
77775;SDS011;66965;43.328;6.668;2023-06-10T15:00:07;14.90;;;6.57;;
77775;SDS011;66965;43.328;6.668;2023-06-10T15:02:32;21.77;;;7.30;;
77775;SDS011;66965;43.328;6.668;2023-06-10T15:04:57;15.53;;;6.67;;
77775;SDS011;66965;43.328;6.668;2023-06-10T15:07:23;12.57;;;6.07;;
77775;SDS011;66965;43.328;6.668;2023-06-10T15:09:48;11.20;;;5.77;;
77775;SDS011;66965;43.328;6.668;2023-06-10T15:12:13;12.97;;;6.27;;
77775;SDS011;66965;43.328;6.668;2023-06-10T15:14:39;13.77;;;5.67;;
77775;SDS011;66965;43.328;6.668;2023-06-10T15:17:04;15.48;;;6.03;;
77775;SDS011;66965;43.328;6.668;2023-06-10T15:19:29;12.60;;;5.00;;
77775;SDS011;66965;43.328;6.668;2023-06-10T15:21:54;10.90;;;5.17;;
77775;SDS011;66965;43.328;6.668;2023-06-10T15:24:20;12.27;;;6.30;;
77775;SDS011;66965;43.328;6.668;2023-06-10T15:26:45;17.70;;;6.30;;
77775;SDS011;66965;43.328;6.668;2023-06-10T15:29:10;11.03;;;5.13;;
77775;SDS011;66965;43.328;6.668;2023-06-10T15:31:36;11.30;;;5.50;;
77775;SDS011;66965;43.328;6.668;2023-06-10T15:34:01;18.17;;;5.40;;
77775;SDS011;66965;43.328;6.668;2023-06-10T15:36:27;9.70;;;5.13;;
77775;SDS011;66965;43.328;6.668;2023-06-10T15:38:53;11.70;;;5.43;;
77775;SDS011;66965;43.328;6.668;2023-06-10T15:41:18;12.30;;;5.68;;